Time;durP1;ratioP1;P1;durP2;ratioP2;P2;SDS_P1;SDS_P2;PMS_P1;PMS_P2;Temp;Humidity;BMP_temperature;BMP_pressure;BME280_temperature;BME280_humidity;BME280_pressure;Samples;Min_cycle;Max_cycle;Signal;HPM_P1;HPM_P2
2023/06/24 00:02:09;;;;;;;6.47;5.50;;;16.30;99.90;;;;;;5017658;28;20068;-92
2023/06/24 00:04:35;;;;;;;6.95;6.25;;;16.30;99.90;;;;;;5001654;28;20060;-92
2023/06/24 00:07:01;;;;;;;7.53;5.40;;;16.20;99.90;;;;;;5008907;28;20038;-92
2023/06/24 00:09:27;;;;;;;6.55;5.65;;;16.10;99.90;;;;;;5015835;28;20044;-92
2023/06/24 00:11:58;;;;;;;6.72;6.05;;;16.10;99.90;;;;;;5017708;28;20075;-92
2023/06/24 00:14:27;;;;;;;6.45;5.38;;;16.10;99.90;;;;;;5034292;28;20045;-92
2023/06/24 00:16:56;;;;;;;6.20;5.60;;;16.20;99.90;;;;;;4999602;28;20053;-92
2023/06/24 00:19:24;;;;;;;5.70;5.20;;;16.20;99.90;;;;;;5013925;28;20036;-92
2023/06/24 00:21:54;;;;;;;6.88;6.00;;;16.20;99.90;;;;;;5007022;28;20068;-92
2023/06/24 00:24:25;;;;;;;6.30;5.68;;;16.30;99.90;;;;;;5005786;28;20045;-92
2023/06/24 00:26:52;;;;;;;7.10;6.20;;;16.30;99.90;;;;;;5016766;28;20557;-91
2023/06/24 00:29:18;;;;;;;6.13;5.50;;;16.30;99.90;;;;;;5016964;28;20110;-92
2023/06/24 00:31:43;;;;;;;6.60;6.00;;;16.20;99.90;;;;;;4999313;28;20456;-92
2023/06/24 00:34:09;;;;;;;6.88;6.13;;;16.20;99.90;;;;;;4999913;28;20037;-92
2023/06/24 00:36:36;;;;;;;7.25;6.57;;;16.20;99.90;;;;;;5017038;28;20499;-92
2023/06/24 00:39:03;;;;;;;6.85;5.30;;;16.20;99.90;;;;;;4983630;28;20040;-92
2023/06/24 00:41:30;;;;;;;6.05;5.45;;;16.20;99.90;;;;;;4994053;28;20041;-92
2023/06/24 00:43:57;;;;;;;6.90;5.70;;;16.20;99.90;;;;;;4996566;28;20056;-92
2023/06/24 00:46:26;;;;;;;6.50;5.90;;;16.20;99.90;;;;;;5000818;28;20080;-92
2023/06/24 00:48:56;;;;;;;6.85;6.15;;;16.20;99.90;;;;;;5017329;28;20495;-92
2023/06/24 00:51:30;;;;;;;6.43;5.82;;;16.20;99.90;;;;;;5017334;28;20041;-92
2023/06/24 00:53:57;;;;;;;6.78;5.95;;;16.20;99.90;;;;;;5002474;28;20049;-92
2023/06/24 00:56:29;;;;;;;6.97;6.28;;;16.20;99.90;;;;;;5009070;28;20096;-92
2023/06/24 00:58:58;;;;;;;6.50;5.90;;;16.30;99.90;;;;;;5011735;28;20095;-90
2023/06/24 01:01:25;;;;;;;7.03;6.32;;;16.20;99.90;;;;;;4987287;28;20120;-92
2023/06/24 01:03:50;;;;;;;6.40;5.47;;;16.20;99.90;;;;;;5000114;28;20040;-91
2023/06/24 01:06:17;;;;;;;7.70;5.80;;;16.20;99.90;;;;;;4998882;28;20045;-92
2023/06/24 01:08:43;;;;;;;7.32;5.90;;;16.20;99.90;;;;;;4999830;28;20045;-91
2023/06/24 01:11:09;;;;;;;6.40;5.80;;;16.20;99.90;;;;;;4982556;28;20041;-92
2023/06/24 01:13:34;;;;;;;7.00;6.13;;;16.20;99.90;;;;;;4982832;28;20045;-92
2023/06/24 01:16:15;;;;;;;8.00;5.93;;;16.20;99.90;;;;;;4994660;28;20452;-93
2023/06/24 01:18:46;;;;;;;6.20;5.60;;;16.20;99.90;;;;;;5014683;28;20140;-92
2023/06/24 01:21:12;;;;;;;7.75;6.38;;;16.20;99.90;;;;;;5011891;28;20097;-92
2023/06/24 01:23:37;;;;;;;6.85;6.15;;;16.20;99.90;;;;;;5021962;28;20119;-92
2023/06/24 01:26:33;;;;;;;6.97;6.32;;;16.10;99.90;;;;;;5019384;28;20137;-92
2023/06/24 01:29:14;;;;;;;6.55;5.95;;;16.10;99.90;;;;;;5015925;28;20777;-92
2023/06/24 01:31:48;;;;;;;7.32;6.07;;;16.10;99.90;;;;;;5013868;28;20048;-92
2023/06/24 01:34:31;;;;;;;7.10;6.40;;;16.00;99.90;;;;;;5018652;28;20568;-92
2023/06/24 01:37:12;;;;;;;8.10;6.40;;;16.00;99.90;;;;;;5017848;28;20033;-92
2023/06/24 01:39:52;;;;;;;7.53;6.43;;;15.90;99.90;;;;;;5020939;28;20534;-92
2023/06/24 01:42:21;;;;;;;6.20;5.60;;;15.90;99.90;;;;;;5019032;28;20052;-92
2023/06/24 01:44:49;;;;;;;6.60;6.00;;;15.90;99.90;;;;;;5003973;28;20037;-92
2023/06/24 01:47:21;;;;;;;6.53;5.93;;;15.90;99.90;;;;;;5019348;28;20044;-92
2023/06/24 01:49:49;;;;;;;7.60;5.93;;;15.90;99.90;;;;;;5019769;28;21730;-92
2023/06/24 01:52:16;;;;;;;6.97;6.38;;;16.00;99.90;;;;;;5000630;28;20041;-92
2023/06/24 01:54:44;;;;;;;6.75;6.15;;;15.90;99.90;;;;;;5001297;28;20081;-91
2023/06/24 01:57:11;;;;;;;6.45;5.68;;;15.90;99.90;;;;;;5016753;28;20179;-92
2023/06/24 01:59:40;;;;;;;;;;;15.80;99.90;;;;;;5001921;28;20033;-92
2023/06/24 02:02:07;;;;;;;6.88;5.75;;;15.80;99.90;;;;;;5020386;28;19917;-92
2023/06/24 02:04:34;;;;;;;7.18;6.47;;;15.70;99.90;;;;;;4998081;28;20037;-92
2023/06/24 02:07:04;;;;;;;7.07;6.38;;;15.70;99.90;;;;;;5003511;28;20044;-92
2023/06/24 02:09:32;;;;;;;7.80;6.53;;;15.60;99.90;;;;;;5000229;28;20041;-91
2023/06/24 02:12:01;;;;;;;8.27;7.47;;;15.60;99.90;;;;;;5017454;28;20032;-92
2023/06/24 02:14:28;;;;;;;7.72;6.93;;;15.60;99.90;;;;;;5012622;28;20041;-92
2023/06/24 02:16:57;;;;;;;8.63;7.78;;;15.70;99.90;;;;;;5016590;28;20079;-91
2023/06/24 02:19:26;;;;;;;9.32;8.15;;;15.70;99.90;;;;;;5015971;28;20041;-91
2023/06/24 02:21:52;;;;;;;9.02;7.38;;;15.70;99.90;;;;;;4999296;28;20078;-91
2023/06/24 02:24:19;;;;;;;9.23;8.03;;;15.70;99.90;;;;;;5011168;28;20392;-91
2023/06/24 02:26:46;;;;;;;;;;;15.80;99.90;;;;;;5014404;28;20103;-91
2023/06/24 02:29:13;;;;;;;9.20;8.30;;;15.80;99.90;;;;;;5019145;28;19967;-91
2023/06/24 02:31:39;;;;;;;9.30;8.40;;;15.80;99.90;;;;;;5012628;28;20077;-91
2023/06/24 02:34:05;;;;;;;10.18;9.07;;;15.80;99.90;;;;;;5010715;28;20041;-92
2023/06/24 02:36:31;;;;;;;10.88;9.73;;;15.80;99.90;;;;;;4997280;28;20033;-92
2023/06/24 02:38:57;;;;;;;10.25;9.18;;;15.80;99.90;;;;;;5017144;28;20036;-91
2023/06/24 02:41:22;;;;;;;10.32;8.88;;;15.80;99.90;;;;;;4980190;28;20044;-91
2023/06/24 02:43:48;;;;;;;11.13;9.63;;;15.80;99.90;;;;;;4996489;28;20041;-92
2023/06/24 02:46:15;;;;;;;11.75;9.25;;;15.80;99.90;;;;;;4986759;28;20132;-91
2023/06/24 02:48:43;;;;;;;10.57;9.48;;;15.80;99.90;;;;;;5000663;28;20041;-90
2023/06/24 02:51:10;;;;;;;11.20;10.05;;;15.80;99.90;;;;;;5014548;28;20036;-91
2023/06/24 02:53:39;;;;;;;10.73;9.63;;;15.70;99.90;;;;;;4999240;28;20045;-91
2023/06/24 02:56:07;;;;;;;10.27;9.18;;;15.70;99.90;;;;;;5015631;28;20050;-91
2023/06/24 02:58:38;;;;;;;11.50;9.73;;;15.70;99.90;;;;;;5015935;28;20041;-91
2023/06/24 03:01:08;;;;;;;10.50;9.43;;;15.60;99.90;;;;;;4999592;28;20077;-91
2023/06/24 03:03:35;;;;;;;11.23;10.02;;;15.70;99.90;;;;;;5029703;28;20531;-91
2023/06/24 03:06:02;;;;;;;11.90;10.02;;;15.70;99.90;;;;;;4993711;28;20045;-92
2023/06/24 03:08:29;;;;;;;9.95;8.95;;;15.60;99.90;;;;;;5017667;28;20132;-91
2023/06/24 03:10:56;;;;;;;10.63;8.63;;;15.60;99.90;;;;;;5008487;28;20057;-91
2023/06/24 03:13:22;;;;;;;10.77;9.45;;;15.60;99.90;;;;;;5018011;28;21095;-91
2023/06/24 03:15:48;;;;;;;10.65;9.52;;;15.60;99.90;;;;;;5001903;28;20110;-91
2023/06/24 03:18:15;;;;;;;10.10;8.82;;;15.50;99.90;;;;;;5001696;28;20038;-89
2023/06/24 03:20:41;;;;;;;10.75;9.15;;;15.60;99.90;;;;;;4990614;28;20094;-91
2023/06/24 03:23:07;;;;;;;8.93;8.02;;;15.50;99.90;;;;;;4987807;28;20041;-91
2023/06/24 03:25:33;;;;;;;10.23;8.70;;;15.50;99.90;;;;;;5001715;28;20036;-91
2023/06/24 03:28:00;;;;;;;9.55;8.55;;;15.50;99.90;;;;;;5017336;28;20045;-91
2023/06/24 03:30:26;;;;;;;;;;;15.50;99.90;;;;;;5002975;28;20127;-91
2023/06/24 03:32:52;;;;;;;11.10;8.68;;;15.50;99.90;;;;;;4990212;28;19921;-91
2023/06/24 03:35:18;;;;;;;9.60;8.60;;;15.50;99.90;;;;;;4996784;28;20049;-90
2023/06/24 03:37:44;;;;;;;9.80;8.60;;;15.50;99.90;;;;;;5002530;28;20170;-92
2023/06/24 03:40:10;;;;;;;10.85;7.80;;;15.50;99.90;;;;;;5033973;28;20036;-92
2023/06/24 03:42:36;;;;;;;10.07;8.50;;;15.50;99.90;;;;;;5001777;28;20079;-91
2023/06/24 03:45:03;;;;;;;9.85;8.35;;;15.50;99.90;;;;;;4986107;28;20128;-91
2023/06/24 03:47:29;;;;;;;10.30;8.93;;;15.50;99.90;;;;;;4998076;28;20037;-91
2023/06/24 03:49:54;;;;;;;9.50;8.57;;;15.60;99.90;;;;;;4985345;28;20040;-92
2023/06/24 03:52:20;;;;;;;9.60;8.70;;;15.60;99.90;;;;;;4983505;28;20064;-91
2023/06/24 03:54:46;;;;;;;10.27;8.98;;;15.60;99.90;;;;;;4985134;28;20037;-91
2023/06/24 03:57:13;;;;;;;10.80;9.05;;;15.70;99.90;;;;;;4990719;28;20455;-91
2023/06/24 03:59:38;;;;;;;10.68;8.63;;;15.70;99.90;;;;;;5033833;28;20510;-91
2023/06/24 04:02:07;;;;;;;11.63;8.93;;;15.70;99.90;;;;;;4998766;28;20041;-91
2023/06/24 04:04:34;;;;;;;10.15;9.05;;;15.70;99.90;;;;;;5002608;28;20044;-91
2023/06/24 04:07:00;;;;;;;10.88;8.20;;;15.80;99.90;;;;;;5015499;28;20041;-91
2023/06/24 04:09:26;;;;;;;9.68;8.52;;;15.80;99.90;;;;;;4982558;28;20096;-91
2023/06/24 04:11:51;;;;;;;8.88;7.97;;;15.90;99.90;;;;;;4979846;28;20495;-92
2023/06/24 04:14:17;;;;;;;8.30;7.40;;;15.90;99.90;;;;;;4982216;28;20451;-92
2023/06/24 04:16:43;;;;;;;9.77;7.63;;;15.90;99.90;;;;;;4995259;28;20033;-91
2023/06/24 04:19:08;;;;;;;9.05;7.88;;;15.90;99.90;;;;;;4998554;28;20112;-91
2023/06/24 04:21:34;;;;;;;9.13;8.15;;;15.90;99.90;;;;;;5010163;28;20034;-92
2023/06/24 04:24:00;;;;;;;9.32;7.65;;;15.90;99.90;;;;;;4985293;28;20072;-92
2023/06/24 04:26:26;;;;;;;8.15;7.10;;;15.90;99.90;;;;;;4982100;28;20049;-92
2023/06/24 04:28:51;;;;;;;8.27;7.13;;;16.00;99.90;;;;;;4980955;28;20124;-91
2023/06/24 04:31:17;;;;;;;8.00;7.25;;;16.00;99.90;;;;;;4993297;28;20049;-91
2023/06/24 04:33:43;;;;;;;7.35;6.65;;;16.00;99.90;;;;;;4978851;28;20548;-91
2023/06/24 04:36:09;;;;;;;8.32;6.68;;;16.10;99.90;;;;;;4998078;28;20048;-92
2023/06/24 04:38:34;;;;;;;6.70;6.10;;;16.10;99.90;;;;;;4985858;28;20040;-92
2023/06/24 04:41:00;;;;;;;8.07;6.22;;;16.20;99.90;;;;;;4999939;28;20040;-91
2023/06/24 04:43:28;;;;;;;7.07;6.38;;;16.20;99.90;;;;;;4992797;28;20040;-91
2023/06/24 04:45:55;;;;;;;7.00;6.30;;;16.10;99.90;;;;;;5032895;28;20115;-92
2023/06/24 04:48:22;;;;;;;6.68;6.07;;;16.30;99.90;;;;;;4987120;28;20127;-92
2023/06/24 04:50:48;;;;;;;7.70;5.57;;;16.40;99.90;;;;;;4998133;28;20045;-91
2023/06/24 04:53:14;;;;;;;7.40;6.05;;;16.50;99.90;;;;;;4983947;28;20484;-91
2023/06/24 04:55:40;;;;;;;6.40;5.38;;;16.60;99.90;;;;;;4982929;28;20141;-91
2023/06/24 04:58:06;;;;;;;6.82;5.78;;;16.60;99.90;;;;;;5001816;28;20697;-91
2023/06/24 05:00:32;;;;;;;11.90;6.28;;;16.80;99.90;;;;;;5003973;28;20066;-91
2023/06/24 05:02:57;;;;;;;7.13;5.43;;;16.80;99.90;;;;;;5005537;28;20071;-91
2023/06/24 05:05:23;;;;;;;6.00;5.40;;;17.00;99.90;;;;;;4988891;28;20280;-92
2023/06/24 05:07:49;;;;;;;5.78;5.25;;;17.00;99.90;;;;;;4989144;28;20037;-92
2023/06/24 05:10:14;;;;;;;6.57;5.20;;;17.00;99.90;;;;;;4986322;28;20045;-91
2023/06/24 05:12:40;;;;;;;5.63;4.95;;;17.10;99.90;;;;;;4988892;28;20073;-92
2023/06/24 05:15:07;;;;;;;5.53;5.00;;;17.10;99.90;;;;;;5004681;28;20087;-92
2023/06/24 05:17:33;;;;;;;6.85;5.22;;;17.10;99.90;;;;;;5010577;28;20082;-92
2023/06/24 05:19:58;;;;;;;6.22;5.03;;;17.20;99.90;;;;;;5009096;28;20708;-93
2023/06/24 05:22:24;;;;;;;5.60;4.95;;;17.30;99.90;;;;;;4985463;28;20396;-93
2023/06/24 05:24:50;;;;;;;6.10;5.38;;;17.40;99.90;;;;;;5004390;28;20040;-92
2023/06/24 05:27:17;;;;;;;7.00;4.90;;;17.40;99.90;;;;;;5005141;28;20029;-92
2023/06/24 05:29:43;;;;;;;5.68;5.03;;;17.50;99.90;;;;;;5003413;28;20038;-92
2023/06/24 05:32:09;;;;;;;5.35;4.85;;;17.60;99.90;;;;;;5021408;28;20040;-92
2023/06/24 05:34:35;;;;;;;6.75;4.57;;;17.70;99.90;;;;;;4995678;28;20048;-92
2023/06/24 05:37:01;;;;;;;4.88;4.30;;;17.80;99.90;;;;;;4978634;28;20049;-92
2023/06/24 05:39:26;;;;;;;5.45;4.78;;;17.80;99.90;;;;;;5021050;28;20037;-91
2023/06/24 05:41:52;;;;;;;5.75;5.10;;;17.90;99.90;;;;;;5003347;28;20040;-93
2023/06/24 05:44:18;;;;;;;5.78;4.70;;;18.00;99.90;;;;;;5008046;28;20041;-91
2023/06/24 05:46:47;;;;;;;5.90;4.45;;;18.20;99.90;;;;;;5012656;28;20073;-93
2023/06/24 05:49:12;;;;;;;7.22;5.10;;;18.30;99.90;;;;;;5012984;28;20226;-91
2023/06/24 05:51:38;;;;;;;7.03;5.05;;;18.40;99.90;;;;;;4992507;28;20095;-93
2023/06/24 05:54:04;;;;;;;5.70;4.90;;;18.50;99.90;;;;;;5003205;28;20041;-93
2023/06/24 05:56:29;;;;;;;6.20;4.93;;;18.70;99.90;;;;;;4999713;28;20045;-93
2023/06/24 05:58:55;;;;;;;5.70;4.28;;;18.90;99.90;;;;;;5003756;28;20056;-93
2023/06/24 06:01:21;;;;;;;6.07;4.70;;;19.10;99.90;;;;;;4986912;28;20585;-92
2023/06/24 06:03:47;;;;;;;4.85;4.40;;;19.20;99.90;;;;;;4992915;28;20653;-95
2023/06/24 06:06:13;;;;;;;6.68;5.00;;;19.40;99.90;;;;;;5019972;28;20044;-90
2023/06/24 06:09:02;;;;;;;5.35;4.70;;;19.60;99.90;;;;;;4986407;28;20049;-93
2023/06/24 06:11:28;;;;;;;6.00;4.30;;;19.90;99.90;;;;;;5013925;28;20075;-93
2023/06/24 06:13:54;;;;;;;5.82;4.50;;;20.50;99.90;;;;;;5003503;28;20037;-92
2023/06/24 06:16:19;;;;;;;5.70;4.43;;;21.10;99.90;;;;;;5020653;28;20498;-92
2023/06/24 06:18:45;;;;;;;4.78;4.22;;;21.50;99.90;;;;;;5004532;28;20094;-92
2023/06/24 06:21:11;;;;;;;4.50;4.10;;;22.30;99.90;;;;;;5005746;28;20029;-91
2023/06/24 06:23:37;;;;;;;4.65;4.03;;;;;;;;;;4977352;28;20077;-91
2023/06/24 06:26:03;;;;;;;4.63;3.70;;;22.50;99.90;;;;;;5002353;28;20041;-92
2023/06/24 06:28:29;;;;;;;4.50;4.10;;;22.40;99.90;;;;;;4988615;28;20071;-92
2023/06/24 06:30:56;;;;;;;4.68;3.92;;;22.00;99.90;;;;;;5001101;28;20053;-92
2023/06/24 06:33:22;;;;;;;4.75;4.07;;;21.80;99.90;;;;;;4987938;28;20044;-92
2023/06/24 06:35:49;;;;;;;5.47;3.85;;;;;;;;;;5028989;28;20071;-91
2023/06/24 06:38:15;;;;;;;3.65;3.28;;;21.70;99.90;;;;;;5013790;28;20032;-90
2023/06/24 06:40:40;;;;;;;4.07;3.60;;;21.40;99.90;;;;;;5001237;28;20043;-91
2023/06/24 06:43:06;;;;;;;3.65;3.22;;;21.30;99.90;;;;;;5004573;28;20102;-91
2023/06/24 06:45:32;;;;;;;4.20;3.80;;;21.30;99.90;;;;;;5005978;28;20070;-91
2023/06/24 06:47:57;;;;;;;5.43;4.00;;;21.20;99.90;;;;;;5002423;28;20049;-92
2023/06/24 06:50:23;;;;;;;5.40;3.80;;;21.10;99.90;;;;;;5003035;28;20060;-92
2023/06/24 06:52:49;;;;;;;5.20;4.32;;;21.10;99.90;;;;;;4988220;28;20122;-91
2023/06/24 06:55:15;;;;;;;4.28;3.80;;;21.10;99.90;;;;;;5002059;28;20049;-94
2023/06/24 06:57:41;;;;;;;5.03;4.53;;;21.10;99.90;;;;;;4990458;28;20060;-92
2023/06/24 07:00:07;;;;;;;4.50;4.10;;;21.20;99.90;;;;;;5006369;28;20116;-94
2023/06/24 07:02:35;;;;;;;6.35;3.75;;;21.20;99.90;;;;;;5027233;28;20052;-90
2023/06/24 07:05:02;;;;;;;4.68;4.10;;;21.30;99.90;;;;;;5003551;28;20021;-91
2023/06/24 07:07:27;;;;;;;8.00;4.20;;;21.40;99.90;;;;;;5040693;28;20096;-91
2023/06/24 07:09:53;;;;;;;5.70;4.50;;;21.50;99.90;;;;;;4995525;28;20041;-91
2023/06/24 07:12:20;;;;;;;4.28;3.75;;;21.50;99.90;;;;;;5001069;28;20493;-91
2023/06/24 07:14:46;;;;;;;4.63;4.03;;;21.60;99.90;;;;;;5016955;28;20069;-91
2023/06/24 07:17:12;;;;;;;5.00;4.22;;;22.00;99.90;;;;;;5016923;28;20041;-90
2023/06/24 07:19:38;;;;;;;4.88;4.35;;;21.60;99.90;;;;;;5003109;28;20102;-91
2023/06/24 07:22:03;;;;;;;4.57;4.05;;;21.70;99.90;;;;;;5018999;28;20087;-91
2023/06/24 07:24:29;;;;;;;5.03;3.95;;;21.70;99.90;;;;;;4999832;28;20128;-90
2023/06/24 07:26:55;;;;;;;4.10;3.70;;;21.80;99.90;;;;;;4993650;28;20134;-91
2023/06/24 07:29:21;;;;;;;4.05;3.63;;;21.90;99.90;;;;;;4987025;28;20041;-90
2023/06/24 07:31:46;;;;;;;5.00;3.60;;;22.10;99.90;;;;;;4991087;28;20079;-91
2023/06/24 07:34:12;;;;;;;5.15;3.25;;;22.30;99.90;;;;;;4983630;28;20036;-90
2023/06/24 07:36:38;;;;;;;5.32;3.83;;;22.70;99.90;;;;;;4986512;28;20029;-90
2023/06/24 07:39:03;;;;;;;5.20;3.72;;;23.00;99.90;;;;;;5000809;28;20031;-91
2023/06/24 07:41:29;;;;;;;3.78;3.15;;;;;;;;;;4985925;28;20045;-90
2023/06/24 07:43:55;;;;;;;3.93;3.37;;;23.80;99.90;;;;;;4995054;28;20128;-91
2023/06/24 07:46:21;;;;;;;3.65;3.22;;;23.90;99.90;;;;;;5017781;28;20155;-92
2023/06/24 07:48:47;;;;;;;3.80;3.33;;;24.20;99.90;;;;;;5000059;28;20136;-93
2023/06/24 07:51:13;;;;;;;4.70;3.27;;;24.30;99.90;;;;;;4991581;28;20369;-94
2023/06/24 07:53:38;;;;;;;3.43;3.13;;;24.60;99.90;;;;;;4983233;28;20045;-93
2023/06/24 07:56:04;;;;;;;3.63;2.90;;;24.60;99.90;;;;;;4999439;28;20053;-93
2023/06/24 07:58:30;;;;;;;3.47;3.10;;;24.70;99.90;;;;;;5032262;28;20334;-93
2023/06/24 08:00:55;;;;;;;6.10;3.20;;;24.70;99.90;;;;;;4985523;28;20036;-94
2023/06/24 08:03:22;;;;;;;4.67;3.03;;;24.70;99.90;;;;;;5000066;28;20041;-93
2023/06/24 08:05:49;;;;;;;3.80;3.40;;;24.60;99.90;;;;;;5002043;28;20105;-93
2023/06/24 08:08:15;;;;;;;4.30;3.08;;;24.70;99.90;;;;;;5014701;28;20124;-93
2023/06/24 08:10:41;;;;;;;4.07;3.53;;;24.70;99.90;;;;;;5002367;28;20036;-91
2023/06/24 08:13:06;;;;;;;4.27;2.90;;;24.80;99.90;;;;;;5023152;28;20050;-91
2023/06/24 08:15:32;;;;;;;3.90;3.00;;;24.80;99.90;;;;;;5007475;28;20041;-89
2023/06/24 08:17:58;;;;;;;5.10;2.83;;;24.80;99.90;;;;;;5031814;28;20098;-91
2023/06/24 08:20:24;;;;;;;4.67;3.30;;;24.70;99.90;;;;;;5006451;28;20152;-91
2023/06/24 08:22:50;;;;;;;3.65;2.47;;;24.60;99.90;;;;;;5008879;28;20037;-91
2023/06/24 08:25:16;;;;;;;3.53;2.77;;;24.50;99.90;;;;;;5023662;28;20043;-91
2023/06/24 08:27:46;;;;;;;4.47;2.80;;;24.50;99.90;;;;;;4989797;28;20037;-91
2023/06/24 08:30:14;;;;;;;3.42;2.55;;;24.40;99.90;;;;;;5007990;28;20036;-91
2023/06/24 08:32:40;;;;;;;2.20;2.00;;;24.40;99.90;;;;;;5020559;28;20044;-91
2023/06/24 08:35:07;;;;;;;2.85;2.17;;;24.30;99.90;;;;;;4990006;28;20152;-90
2023/06/24 08:37:34;;;;;;;3.03;2.25;;;24.30;99.90;;;;;;5003353;28;20041;-91
2023/06/24 08:43:42;;;;;;;3.92;2.30;;;24.30;99.90;;;;;;5041937;28;20059;-91
2023/06/24 08:46:40;;;;;;;;;;;;;;;;;;;;;
2023/06/24 08:49:30;;;;;;;3.85;2.65;;;24.30;99.90;;;;;;5019540;28;20080;-92
2023/06/24 08:52:03;;;;;;;4.18;2.00;;;24.30;99.90;;;;;;5020844;28;20076;-94
2023/06/24 08:54:32;;;;;;;3.60;2.35;;;24.50;99.90;;;;;;5020516;28;20116;-91
2023/06/24 08:56:58;;;;;;;4.30;2.55;;;24.90;99.90;;;;;;5022042;28;20037;-92
2023/06/24 08:59:23;;;;;;;2.53;2.13;;;25.50;99.90;;;;;;5020657;28;20095;-92
2023/06/24 09:01:52;;;;;;;3.10;2.40;;;26.10;99.90;;;;;;5004301;28;20036;-92
2023/06/24 09:04:18;;;;;;;4.47;2.30;;;26.50;99.90;;;;;;5000561;28;20045;-93
2023/06/24 09:06:44;;;;;;;3.53;2.22;;;26.90;99.90;;;;;;5014073;28;20051;-93
2023/06/24 09:09:23;;;;;;;3.15;2.15;;;27.20;99.90;;;;;;5000707;28;20041;-94
2023/06/24 09:11:59;;;;;;;4.47;2.40;;;27.50;99.90;;;;;;4999531;28;20114;-90
2023/06/24 09:14:26;;;;;;;2.95;2.10;;;27.80;99.90;;;;;;5032825;28;20045;-91
2023/06/24 09:16:55;;;;;;;2.30;1.90;;;27.80;99.90;;;;;;5003535;28;20552;-92
2023/06/24 09:19:28;;;;;;;3.53;2.28;;;27.60;99.90;;;;;;5024284;28;20068;-93
2023/06/24 09:22:07;;;;;;;3.13;2.15;;;27.70;99.90;;;;;;5002984;28;20692;-95
2023/06/24 09:24:34;;;;;;;4.20;2.45;;;27.80;99.90;;;;;;5013068;28;20046;-93
2023/06/24 09:27:01;;;;;;;3.13;2.33;;;27.80;99.90;;;;;;5020659;28;20124;-95
2023/06/24 09:29:31;;;;;;;3.05;2.28;;;27.80;99.90;;;;;;5001913;28;20044;-94
2023/06/24 09:32:10;;;;;;;3.30;2.42;;;27.90;99.90;;;;;;5015122;28;20043;-96
2023/06/24 09:34:39;;;;;;;2.63;2.20;;;27.90;99.50;;;;;;5002070;28;20041;-94
2023/06/24 09:37:21;;;;;;;2.83;1.85;;;27.90;99.90;;;;;;5020278;28;20479;-96
2023/06/24 09:40:13;;;;;;;2.67;2.30;;;27.90;99.90;;;;;;5004721;28;20372;-94
2023/06/24 09:43:00;;;;;;;3.08;2.03;;;27.90;97.10;;;;;;5002791;28;20041;-96
2023/06/24 09:45:28;;;;;;;3.03;2.00;;;27.80;97.50;;;;;;5044102;23;20428;-41
2023/06/24 09:47:56;;;;;;;4.80;1.90;;;27.70;98.40;;;;;;5089196;28;20993;-41
2023/06/24 09:50:22;;;;;;;2.90;2.05;;;27.60;98.50;;;;;;5062216;28;20044;-41
2023/06/24 09:52:49;;;;;;;2.83;1.90;;;27.40;98.20;;;;;;5087697;28;20097;-41
2023/06/24 09:55:17;;;;;;;3.75;2.00;;;27.30;98.30;;;;;;5082073;28;20123;-41
2023/06/24 09:57:46;;;;;;;4.45;2.10;;;27.30;98.70;;;;;;5085934;28;20450;-41
2023/06/24 10:00:17;;;;;;;2.60;1.75;;;27.40;98.10;;;;;;5075969;28;20485;-41
2023/06/24 10:02:44;;;;;;;3.95;2.03;;;27.60;97.80;;;;;;5075548;28;20067;-41
2023/06/24 10:05:10;;;;;;;2.72;1.95;;;27.70;97.20;;;;;;5068633;28;20047;-41
2023/06/24 10:07:38;;;;;;;2.58;2.13;;;27.80;97.00;;;;;;5084571;28;20075;-41
2023/06/24 10:10:05;;;;;;;3.42;2.08;;;28.00;97.00;;;;;;5085943;28;20506;-40
2023/06/24 10:12:31;;;;;;;7.75;2.47;;;28.20;96.70;;;;;;5086792;28;20115;-40
2023/06/24 10:14:59;;;;;;;3.03;2.30;;;28.20;96.50;;;;;;5088230;28;20240;-40
2023/06/24 10:17:24;;;;;;;7.95;2.00;;;28.20;95.70;;;;;;5084252;28;20422;-40
2023/06/24 10:19:55;;;;;;;2.25;2.00;;;28.20;95.60;;;;;;5083313;28;20528;-40
2023/06/24 10:22:25;;;;;;;3.30;1.80;;;28.30;95.40;;;;;;5078756;28;20119;-40
2023/06/24 10:24:52;;;;;;;3.13;2.42;;;28.30;94.60;;;;;;5062338;28;20681;-40
2023/06/24 10:30:58;;;;;;;4.38;2.10;;;27.90;92.70;;;;;;5084094;22;20114;-90
2023/06/24 10:33:25;;;;;;;2.43;1.90;;;27.80;92.90;;;;;;5004838;28;20422;-91
2023/06/24 10:35:51;;;;;;;3.35;1.90;;;27.70;92.30;;;;;;5020825;28;20036;-91
2023/06/24 10:38:17;;;;;;;;;;;27.70;92.20;;;;;;5022785;28;20568;-90
2023/06/24 10:40:43;;;;;;;3.28;2.20;;;27.60;92.00;;;;;;5018106;28;19921;-91
2023/06/24 10:43:25;;;;;;;5.63;1.73;;;27.50;92.20;;;;;;5021453;28;20098;-92
2023/06/24 10:45:51;;;;;;;1.95;1.58;;;27.30;91.60;;;;;;5035487;28;20037;-91
2023/06/24 10:48:20;;;;;;;2.00;1.35;;;27.30;92.20;;;;;;5043867;28;20132;-91
2023/06/24 10:50:47;;;;;;;5.22;1.73;;;27.60;91.50;;;;;;5001144;28;20044;-91
2023/06/24 10:53:14;;;;;;;2.50;1.60;;;27.80;91.20;;;;;;5031330;28;20760;-91
2023/06/24 10:55:40;;;;;;;2.08;1.48;;;28.00;91.20;;;;;;5003885;28;20095;-90
2023/06/24 10:58:11;;;;;;;1.75;1.30;;;28.10;91.40;;;;;;5037747;28;20086;-92
2023/06/24 11:00:37;;;;;;;2.83;1.70;;;28.20;91.40;;;;;;5022016;28;20479;-91
2023/06/24 11:03:18;;;;;;;3.17;1.90;;;28.10;90.80;;;;;;5005810;28;20036;-91
2023/06/24 11:05:46;;;;;;;1.90;1.67;;;28.00;90.10;;;;;;5037210;28;20470;-91
2023/06/24 11:08:12;;;;;;;3.13;1.90;;;27.80;90.20;;;;;;5021556;28;20056;-91
2023/06/24 11:10:45;;;;;;;2.10;1.90;;;27.60;90.90;;;;;;5038583;28;20182;-92
2023/06/24 11:13:11;;;;;;;3.78;1.90;;;27.40;91.30;;;;;;5026113;28;20041;-91
2023/06/24 11:15:39;;;;;;;2.75;2.03;;;27.20;91.60;;;;;;5021513;28;20128;-89
2023/06/24 11:18:08;;;;;;;3.17;1.83;;;27.00;91.20;;;;;;5020508;28;20097;-90
2023/06/24 11:20:39;;;;;;;2.00;1.73;;;27.10;91.20;;;;;;5034457;28;20036;-89
2023/06/24 11:23:12;;;;;;;4.50;2.00;;;27.40;91.50;;;;;;5031856;28;20044;-90
2023/06/24 11:25:42;;;;;;;2.22;1.80;;;27.50;92.00;;;;;;5038568;28;20051;-89
2023/06/24 11:28:18;;;;;;;2.00;1.52;;;27.70;92.00;;;;;;5018053;28;20063;-88
2023/06/24 11:30:43;;;;;;;2.08;1.65;;;27.70;90.50;;;;;;5022901;28;20109;-87
2023/06/24 11:33:09;;;;;;;2.33;1.80;;;27.60;90.10;;;;;;5016157;28;20495;-87
2023/06/24 11:35:37;;;;;;;3.37;2.13;;;27.60;90.10;;;;;;5015934;28;20036;-90
2023/06/24 11:38:03;;;;;;;2.70;1.65;;;27.50;90.30;;;;;;5017138;28;20036;-90
2023/06/24 11:40:32;;;;;;;2.58;1.63;;;27.40;90.50;;;;;;5022641;28;20048;-89
2023/06/24 11:43:00;;;;;;;3.15;1.90;;;27.20;90.80;;;;;;5030827;28;20039;-90
2023/06/24 11:45:26;;;;;;;2.33;1.85;;;27.10;90.90;;;;;;5016957;28;20043;-90
2023/06/24 11:47:52;;;;;;;5.00;1.73;;;27.00;91.40;;;;;;5023181;28;20287;-90
2023/06/24 11:50:25;;;;;;;1.70;1.48;;;26.90;91.70;;;;;;5016944;28;20119;-89
2023/06/24 11:52:52;;;;;;;2.60;1.80;;;26.90;92.10;;;;;;5037054;28;20051;-89
2023/06/24 11:55:17;;;;;;;2.75;1.50;;;26.80;92.20;;;;;;5000595;28;20041;-90
2023/06/24 11:57:53;;;;;;;3.10;1.90;;;26.70;92.50;;;;;;5035576;28;20102;-89
2023/06/24 12:00:24;;;;;;;4.53;1.98;;;26.70;93.10;;;;;;5037731;28;20049;-87
2023/06/24 12:02:54;;;;;;;2.17;1.80;;;26.60;93.40;;;;;;5036812;28;20032;-89
2023/06/24 12:05:28;;;;;;;2.83;1.88;;;26.50;94.10;;;;;;5019938;28;20040;-89
2023/06/24 12:07:59;;;;;;;2.25;1.73;;;26.50;93.30;;;;;;5022268;28;20044;-89
2023/06/24 12:10:25;;;;;;;2.70;2.00;;;26.30;92.60;;;;;;5021569;28;20140;-89
2023/06/24 12:12:51;;;;;;;4.07;2.25;;;26.20;92.80;;;;;;5019759;28;20123;-89
2023/06/24 12:15:17;;;;;;;2.65;1.77;;;26.20;93.80;;;;;;5024763;28;20036;-90
2023/06/24 12:17:42;;;;;;;3.37;1.70;;;26.40;93.90;;;;;;5015195;28;20041;-89
2023/06/24 12:20:09;;;;;;;3.20;1.87;;;26.50;94.10;;;;;;5019234;28;20437;-89
2023/06/24 12:22:36;;;;;;;3.03;1.65;;;26.50;93.60;;;;;;5037711;28;20041;-87
2023/06/24 12:25:03;;;;;;;2.40;1.60;;;26.40;93.10;;;;;;5030515;28;20071;-89
2023/06/24 12:27:29;;;;;;;1.88;1.33;;;26.40;93.30;;;;;;5035980;28;20037;-89
2023/06/24 12:29:55;;;;;;;1.97;1.60;;;26.40;92.60;;;;;;5019783;28;20056;-90
2023/06/24 12:32:20;;;;;;;2.40;1.37;;;26.40;92.30;;;;;;5021605;28;20040;-90
2023/06/24 12:34:46;;;;;;;1.90;1.50;;;26.50;92.30;;;;;;5019952;28;20041;-88
2023/06/24 12:37:12;;;;;;;1.90;1.50;;;26.60;92.50;;;;;;5018206;28;20120;-90
2023/06/24 12:39:38;;;;;;;2.10;1.37;;;26.70;92.70;;;;;;5021239;28;20043;-89
2023/06/24 12:42:05;;;;;;;2.53;1.70;;;26.80;93.00;;;;;;5021037;28;20044;-89
2023/06/24 12:44:31;;;;;;;2.47;1.77;;;26.80;92.20;;;;;;5005122;28;20056;-90
2023/06/24 12:46:57;;;;;;;4.00;1.92;;;26.70;92.10;;;;;;5003503;28;20044;-88
2023/06/24 12:49:23;;;;;;;3.23;1.80;;;26.50;91.80;;;;;;5004420;28;20037;-89
2023/06/24 12:51:48;;;;;;;11.30;2.07;;;26.40;91.60;;;;;;5020676;28;20045;-88
2023/06/24 12:54:14;;;;;;;2.80;1.63;;;26.40;91.80;;;;;;5000539;28;20094;-89
2023/06/24 12:56:40;;;;;;;2.30;1.90;;;26.40;91.50;;;;;;5022374;28;20028;-90
2023/06/24 12:59:05;;;;;;;2.33;1.50;;;26.30;91.70;;;;;;5005834;28;20048;-90